Pagrindinis puslapis
METAR-TAF:

METAR-TAF

Oro uostai :

Vigas, Ispanija

platuma: 42-13N, ilguma: 008-38W, Aukštis: 264 m

Dabartinis oras

Ataskaita buvo paskelbta 27 minutes, ne 21:30 UTC
Vėjas 10 kt iš Šiaurės/Šiaurės Rytų, svyruoja nuo Šiaurės ir Rytų/Šiaurės Rytų
Temperatūra 13°C
Drėgmė 72%
Slėgis 1024 hPa
Matomumas 10 km arba daugiau
nėra debesų žemiau 1500 m ir nėra kamuolinių lietaus debesų

METAR: LEVX 152130Z 03010KT 360V060 CAVOK 13/08 Q1024 NOSIG

Laikas: 23:57 (21:57 UTC)

Prognozė

Ataskaita buvo paskelbta 4 valandos ir 57 minutes, ne 17:00 UTC
Prognozė galioja nuo 15 metu 18 UTC su 16 metu 18 UTC
Vėjas 9 kt iš Šiaurės
Matomumas 10 km arba daugiau
nėra debesų žemiau 1500 m ir nėra kamuolinių lietaus debesų
Tikimybė 30% :
Laikinai
nuo 16 metu 12 UTC su 16 metu 18 UTC
Vėjas 15 kt iš Šiaurės/Šiaurės Rytų su gūsio iki 25 kt

TAF: LEVX 151700Z 1518/1618 01009KT CAVOK TX22/1615Z TN09/1606Z PROB30 TEMPO 1612/1618 02015G25KT

Orai ataskaitas ir orų prognozės (METAR, TAF).

turimą stotys yra geltonos ir raudonos taškus žemėlapyje.

Perkelti pele per norėdami pamatyti stoties vardą.

Tada spustelėkite, norėdami matyti oro stebėjimo ir prognozės.

Norėdami pakeisti žemėlapį: spustelėkite ant žalios mygtukų su juodo kryžiaus žemyn,; žalią mygtuką su brūkšneliu, jei norite nutolinti; arba žalių rodyklių gretimoms žemėlapius.


METAR-TAF: